createdAt,value
2017-01-19T00:00:35.973Z,51.43
2017-01-19T00:01:16.488Z,51.43
2017-01-19T00:01:57.239Z,51.62
2017-01-19T00:02:37.819Z,51.62
2017-01-19T00:03:18.363Z,51.34
2017-01-19T00:03:58.883Z,51.43
2017-01-19T00:04:39.446Z,51.15
2017-01-19T00:05:19.990Z,51.43
2017-01-19T00:06:00.678Z,51.53
2017-01-19T00:06:41.168Z,51.53
2017-01-19T00:07:21.938Z,51.25
2017-01-19T00:08:02.346Z,51.34
2017-01-19T00:08:42.744Z,51.06
2017-01-19T00:09:23.374Z,51.25
2017-01-19T00:10:04.661Z,51.53
2017-01-19T00:10:45.035Z,51.53
2017-01-19T00:11:25.650Z,51.06
2017-01-19T00:12:06.189Z,51.06
2017-01-19T00:12:46.664Z,51.53
2017-01-19T00:13:27.213Z,51.81
2017-01-19T00:14:07.643Z,51.43
2017-01-19T00:14:48.179Z,51.25
2017-01-19T00:15:28.787Z,51.34
2017-01-19T00:16:09.222Z,51.34
2017-01-19T00:16:49.678Z,51.43
2017-01-19T00:17:30.244Z,51.53
2017-01-19T00:18:10.725Z,51.25
2017-01-19T00:18:51.303Z,50.78
2017-01-19T00:19:31.801Z,50.87
2017-01-19T00:20:12.486Z,51.62
2017-01-19T00:20:53.844Z,51.43
2017-01-19T00:21:34.332Z,51.62
2017-01-19T00:22:15.245Z,52.19
2017-01-19T00:22:55.844Z,52
2017-01-19T00:23:36.522Z,52.1
2017-01-19T00:24:16.956Z,52.57
2017-01-19T00:24:57.396Z,51.81
2017-01-19T00:25:37.904Z,51.72
2017-01-19T00:26:18.603Z,52.19
2017-01-19T00:26:59.123Z,52.1
2017-01-19T00:27:39.792Z,52.19
2017-01-19T00:28:20.258Z,51.91
2017-01-19T00:29:00.957Z,52.29
2017-01-19T00:29:41.343Z,52
2017-01-19T00:30:21.854Z,52
2017-01-19T00:31:02.333Z,52
2017-01-19T00:31:43.099Z,52.1
2017-01-19T00:32:23.391Z,51.91
2017-01-19T00:33:03.894Z,52.38
2017-01-19T00:33:44.286Z,52.38
2017-01-19T00:34:24.785Z,52.1
2017-01-19T00:35:05.257Z,52
2017-01-19T00:35:45.833Z,52.38
2017-01-19T00:36:26.225Z,52.1
2017-01-19T00:37:06.718Z,51.81
2017-01-19T00:37:47.250Z,52.29
2017-01-19T00:38:27.705Z,52
2017-01-19T00:39:08.285Z,51.62
2017-01-19T00:39:48.708Z,52.38
2017-01-19T00:40:29.189Z,51.91
2017-01-19T00:41:09.751Z,52
2017-01-19T00:41:50.328Z,52
2017-01-19T00:42:30.866Z,51.81
2017-01-19T00:43:11.340Z,52.19
2017-01-19T00:43:51.872Z,52.38
2017-01-19T00:44:32.433Z,52.19
2017-01-19T00:45:12.860Z,52.38
2017-01-19T00:45:53.409Z,52.48
2017-01-19T00:46:33.901Z,52.19
2017-01-19T00:47:14.374Z,52.29
2017-01-19T00:47:54.934Z,52.38
2017-01-19T00:48:35.396Z,52.48
2017-01-19T00:49:16.233Z,52.48
2017-01-19T00:49:56.787Z,52.19
2017-01-19T00:50:37.200Z,51.91
2017-01-19T00:51:17.787Z,52.1
2017-01-19T00:51:58.294Z,51.91
2017-01-19T00:52:38.734Z,52.1
2017-01-19T00:53:19.219Z,52.19
2017-01-19T00:53:59.785Z,51.81
2017-01-19T00:54:40.262Z,52.29
2017-01-19T00:55:20.732Z,52.48
2017-01-19T00:56:01.196Z,52.29
2017-01-19T00:56:41.681Z,52
2017-01-19T00:57:22.218Z,51.91
2017-01-19T00:58:02.748Z,51.72
2017-01-19T00:58:43.116Z,51.91
2017-01-19T00:59:23.618Z,52.29
2017-01-19T01:00:04.145Z,52.19
2017-01-19T01:00:44.577Z,52.29
2017-01-19T01:01:25.116Z,51.91
2017-01-19T01:02:05.615Z,51.81
2017-01-19T01:02:46.095Z,52
2017-01-19T01:03:26.573Z,51.72
2017-01-19T01:04:07.113Z,52
2017-01-19T01:04:47.744Z,51.91
2017-01-19T01:05:28.230Z,52.19
2017-01-19T01:06:08.819Z,52.29
2017-01-19T01:06:49.216Z,52.29
2017-01-19T01:07:29.686Z,52.19
2017-01-19T01:08:10.218Z,51.91
2017-01-19T01:08:50.672Z,52.19
2017-01-19T01:09:31.229Z,52.48
2017-01-19T01:10:11.723Z,52.48
2017-01-19T01:10:52.213Z,52.57
2017-01-19T01:11:32.712Z,52.38
2017-01-19T01:12:13.152Z,52.48
2017-01-19T01:12:53.624Z,52.48
2017-01-19T01:13:34.091Z,52.67
2017-01-19T01:14:14.682Z,52.92
2017-01-19T01:14:55.131Z,53.14
2017-01-19T01:15:35.639Z,53.61
2017-01-19T01:16:16.110Z,53.23
2017-01-19T01:18:29.365Z,53.23
2017-01-19T01:19:09.822Z,53.02
2017-01-19T01:19:50.308Z,53.3
2017-01-19T01:20:30.805Z,53.58
2017-01-19T01:21:11.317Z,53.58
2017-01-19T01:21:51.749Z,54.06
2017-01-19T01:22:32.226Z,54.62
2017-01-19T01:23:12.762Z,54.53
2017-01-19T01:23:53.216Z,54.44
2017-01-19T01:24:33.781Z,54.72
2017-01-19T01:25:14.210Z,54.81
2017-01-19T01:25:54.692Z,54.72
2017-01-19T01:26:35.189Z,54.81
2017-01-19T01:27:15.805Z,54.72
2017-01-19T01:27:56.403Z,54.81
2017-01-19T01:28:36.991Z,54.53
2017-01-19T01:29:17.443Z,53.96
2017-01-19T01:29:57.882Z,53.87
2017-01-19T01:30:38.420Z,54.34
2017-01-19T01:31:18.903Z,54.44
2017-01-19T01:31:59.371Z,54.53
2017-01-19T01:32:40.048Z,54.72
2017-01-19T01:33:20.339Z,55
2017-01-19T01:34:00.820Z,54.72
2017-01-19T01:34:41.467Z,54.44
2017-01-19T01:35:21.854Z,54.72
2017-01-19T01:36:02.480Z,54.72
2017-01-19T01:36:43.024Z,54.81
2017-01-19T01:37:23.368Z,54.72
2017-01-19T01:38:03.979Z,54.91
2017-01-19T01:38:44.490Z,54.62
2017-01-19T01:39:24.900Z,54.62
2017-01-19T01:40:05.358Z,54.62
2017-01-19T01:40:45.766Z,55.19
2017-01-19T01:41:26.335Z,54.62
2017-01-19T01:42:06.790Z,54.81
2017-01-19T01:42:47.336Z,54.72
2017-01-19T01:43:27.745Z,54.62
2017-01-19T01:44:08.228Z,54.72
2017-01-19T01:44:48.707Z,54.91
2017-01-19T01:45:29.214Z,54.44
2017-01-19T01:46:09.688Z,54.53
2017-01-19T01:46:50.187Z,54.34
2017-01-19T01:47:30.804Z,54.81
2017-01-19T01:48:11.233Z,54.72
2017-01-19T01:48:51.763Z,54.81
2017-01-19T01:49:32.267Z,54.62
2017-01-19T01:50:12.736Z,54.72
2017-01-19T01:50:53.267Z,54.81
2017-01-19T01:51:33.749Z,54.72
2017-01-19T01:52:14.282Z,54.53
2017-01-19T01:52:54.859Z,54.53
2017-01-19T01:53:35.253Z,54.62
2017-01-19T01:54:15.787Z,54.53
2017-01-19T01:54:56.208Z,54.53
2017-01-19T01:55:36.798Z,54.62
2017-01-19T01:56:17.290Z,54.62
2017-01-19T01:56:57.701Z,54.53
2017-01-19T01:57:38.148Z,54.53
2017-01-19T01:58:18.695Z,54.15
2017-01-19T01:58:59.113Z,54.08
2017-01-19T01:59:39.586Z,53.87
2017-01-19T02:00:20.217Z,54.06
2017-01-19T02:01:00.693Z,53.49
2017-01-19T02:01:41.174Z,53.49
2017-01-19T02:02:21.608Z,53.58
2017-01-19T02:03:02.462Z,53.68
2017-01-19T02:03:43.000Z,53.58
2017-01-19T02:04:23.484Z,53.68
2017-01-19T02:05:03.917Z,53.89
2017-01-19T02:05:44.503Z,53.49
2017-01-19T02:06:25.061Z,53.58
2017-01-19T02:07:05.369Z,53.39
2017-01-19T02:07:46.019Z,53.58
2017-01-19T02:08:26.570Z,53.58
2017-01-19T02:09:07.065Z,53.11
2017-01-19T02:09:47.829Z,53.49
2017-01-19T02:10:28.205Z,53.68
2017-01-19T02:11:08.729Z,53.58
2017-01-19T02:11:49.266Z,53.68
2017-01-19T02:12:29.761Z,53.49
2017-01-19T02:13:10.151Z,53.39
2017-01-19T02:13:50.743Z,53.49
2017-01-19T02:14:31.161Z,53.3
2017-01-19T02:15:11.682Z,53.2
2017-01-19T02:15:52.395Z,53.39
2017-01-19T02:16:32.792Z,53.11
2017-01-19T02:17:13.256Z,53.7
2017-01-19T02:17:53.736Z,53.23
2017-01-19T02:18:34.249Z,53.42
2017-01-19T02:19:14.721Z,53.2
2017-01-19T02:19:55.187Z,53.2
2017-01-19T02:20:35.677Z,53.2
2017-01-19T02:21:16.144Z,53.11
2017-01-19T02:21:56.720Z,53.14
2017-01-19T02:22:37.247Z,53.23
2017-01-19T02:23:17.711Z,53.11
2017-01-19T02:23:58.223Z,53.05
2017-01-19T02:24:38.797Z,53.14
2017-01-19T02:25:19.249Z,53.33
2017-01-19T02:25:59.731Z,52.67
2017-01-19T02:26:40.152Z,53.05
2017-01-19T02:27:20.620Z,52.67
2017-01-19T02:28:01.102Z,52.76
2017-01-19T02:28:41.674Z,52.92
2017-01-19T02:29:22.104Z,53.3
2017-01-19T02:30:02.606Z,53.39
2017-01-19T02:30:43.174Z,53.49
2017-01-19T02:31:23.674Z,53.68
2017-01-19T02:32:04.285Z,53.87
2017-01-19T02:32:44.808Z,53.68
2017-01-19T02:33:25.320Z,53.68
2017-01-19T02:34:06.038Z,54.06
2017-01-19T02:34:46.567Z,53.58
2017-01-19T02:35:27.172Z,53.49
2017-01-19T02:36:07.864Z,53.52
2017-01-19T02:36:48.302Z,53.49
2017-01-19T02:37:28.752Z,53.49
2017-01-19T02:38:09.381Z,53.49
2017-01-19T02:38:49.839Z,53.68
2017-01-19T02:39:30.364Z,53.58
2017-01-19T02:40:10.769Z,53.58
2017-01-19T02:40:51.238Z,53.3
2017-01-19T02:41:31.731Z,53.2
2017-01-19T02:42:12.287Z,53.02
2017-01-19T02:42:52.706Z,53.68
2017-01-19T02:43:33.193Z,53.61
2017-01-19T02:44:13.703Z,53.2
2017-01-19T02:44:54.260Z,53.14
2017-01-19T02:45:34.741Z,53.7
2017-01-19T02:46:15.208Z,53.3
2017-01-19T02:46:55.672Z,53.02
2017-01-19T02:47:36.178Z,53.3
2017-01-19T02:48:16.639Z,53.11
2017-01-19T02:48:57.180Z,53.2
2017-01-19T02:49:37.721Z,53.39
2017-01-19T02:50:18.132Z,53.3
2017-01-19T02:50:58.680Z,53.3
2017-01-19T02:51:39.217Z,53.8
2017-01-19T02:52:19.645Z,53.05
2017-01-19T02:53:00.173Z,53.05
2017-01-19T02:53:40.672Z,52.67
2017-01-19T02:54:21.088Z,53.05
2017-01-19T02:55:01.629Z,53.05
2017-01-19T02:55:42.045Z,53.02
2017-01-19T02:56:22.634Z,52.67
2017-01-19T02:57:03.091Z,53.05
2017-01-19T02:57:43.534Z,52.73
2017-01-19T02:58:24.027Z,53.11
2017-01-19T02:59:04.528Z,53.3
2017-01-19T02:59:44.987Z,53.77
2017-01-19T03:00:25.546Z,53.58
2017-01-19T03:01:05.989Z,53.68
2017-01-19T03:01:46.475Z,53.49
2017-01-19T03:02:26.890Z,53.68
2017-01-19T03:03:07.378Z,53.87
2017-01-19T03:03:47.895Z,53.58
2017-01-19T03:04:28.404Z,53.68
2017-01-19T03:05:09.020Z,53.49
2017-01-19T03:05:49.396Z,53.68
2017-01-19T03:06:29.850Z,53.58
2017-01-19T03:07:10.420Z,53.68
2017-01-19T03:07:50.835Z,53.68
2017-01-19T03:08:31.363Z,53.96
2017-01-19T03:09:11.882Z,54.53
2017-01-19T03:09:52.416Z,54.06
2017-01-19T03:10:32.907Z,53.87
2017-01-19T03:11:13.369Z,53.77
2017-01-19T03:11:53.864Z,53.87
2017-01-19T03:12:34.340Z,53.68
2017-01-19T03:13:14.804Z,53.68
2017-01-19T03:13:55.368Z,53.68
2017-01-19T03:14:35.800Z,53.87
2017-01-19T03:15:16.311Z,53.96
2017-01-19T03:15:56.788Z,53.96
2017-01-19T03:16:37.309Z,53.87
2017-01-19T03:17:17.797Z,54.44
2017-01-19T03:17:58.233Z,53.96
2017-01-19T03:18:38.768Z,53.58
2017-01-19T03:19:19.250Z,53.39
2017-01-19T03:19:59.795Z,53.3
2017-01-19T03:20:40.217Z,53.3
2017-01-19T03:21:20.671Z,53.58
2017-01-19T03:22:01.190Z,53.49
2017-01-19T03:22:41.677Z,53.49
2017-01-19T03:23:22.190Z,54.06
2017-01-19T03:24:02.676Z,53.96
2017-01-19T03:24:43.136Z,53.58
2017-01-19T03:25:23.595Z,53.68
2017-01-19T03:26:04.107Z,53.87
2017-01-19T03:26:44.590Z,53.96
2017-01-19T03:27:25.125Z,53.87
2017-01-19T03:28:05.568Z,54.15
2017-01-19T03:28:46.038Z,53.68
2017-01-19T03:29:26.663Z,53.87
2017-01-19T03:30:07.007Z,53.68
2017-01-19T03:30:47.514Z,53.49
2017-01-19T03:31:28.045Z,53.87
2017-01-19T03:32:08.487Z,53.87
2017-01-19T03:32:49.012Z,53.49
2017-01-19T03:33:29.471Z,53.68
2017-01-19T03:34:09.986Z,53.87
2017-01-19T03:34:50.458Z,54.06
2017-01-19T03:35:30.945Z,53.87
2017-01-19T03:36:11.418Z,54.62
2017-01-19T03:36:51.890Z,54.44
2017-01-19T03:37:32.382Z,54.44
2017-01-19T03:38:12.930Z,54.06
2017-01-19T03:38:53.422Z,54.15
2017-01-19T03:39:33.926Z,54.15
2017-01-19T03:40:14.420Z,54.06
2017-01-19T03:40:54.931Z,54.53
2017-01-19T03:41:35.383Z,54.81
2017-01-19T03:42:15.896Z,54.72
2017-01-19T03:42:56.385Z,54.72
2017-01-19T03:43:36.888Z,54.72
2017-01-19T03:44:17.451Z,54.72
2017-01-19T03:44:57.823Z,54.72
2017-01-19T03:45:38.465Z,54.81
2017-01-19T03:46:18.879Z,54.72
2017-01-19T03:46:59.312Z,54.72
2017-01-19T03:47:39.859Z,54.72
2017-01-19T03:48:20.286Z,54.53
2017-01-19T03:49:00.784Z,54.44
2017-01-19T03:49:41.291Z,54.81
2017-01-19T03:50:21.760Z,54.72
2017-01-19T03:51:02.341Z,54.81
2017-01-19T03:51:42.745Z,54.81
2017-01-19T03:52:23.165Z,54.53
2017-01-19T03:53:03.751Z,54.62
2017-01-19T03:53:44.273Z,54.53
2017-01-19T03:54:24.759Z,54.15
2017-01-19T03:55:05.263Z,54.53
2017-01-19T03:55:45.736Z,53.96
2017-01-19T03:56:26.246Z,53.68
2017-01-19T03:57:06.685Z,53.58
2017-01-19T03:57:47.168Z,53.58
2017-01-19T03:58:27.660Z,53.39
2017-01-19T03:59:08.162Z,53.96
2017-01-19T03:59:48.640Z,54.25
2017-01-19T04:00:29.182Z,53.96
2017-01-19T04:01:09.573Z,54.06
2017-01-19T04:01:50.089Z,54.15
2017-01-19T04:02:30.667Z,54.25
2017-01-19T04:03:11.095Z,54.62
2017-01-19T04:03:51.566Z,54.62
2017-01-19T04:04:32.102Z,54.72
2017-01-19T04:05:12.507Z,54.15
2017-01-19T04:05:53.008Z,53.77
2017-01-19T04:06:33.569Z,53.96
2017-01-19T04:07:14.048Z,54.06
2017-01-19T04:07:54.483Z,53.77
2017-01-19T04:08:35.005Z,54.44
2017-01-19T04:09:15.456Z,54.34
2017-01-19T04:09:55.971Z,54.81
2017-01-19T04:10:36.450Z,54.62
2017-01-19T04:11:17.001Z,54.91
2017-01-19T04:11:57.466Z,54.72
2017-01-19T04:12:37.943Z,54.44
2017-01-19T04:13:18.433Z,54.62
2017-01-19T04:13:58.852Z,54.72
2017-01-19T04:14:39.420Z,54.53
2017-01-19T04:15:19.898Z,54.25
2017-01-19T04:16:00.378Z,53.96
2017-01-19T04:16:40.905Z,53.96
2017-01-19T04:17:21.300Z,53.87
2017-01-19T04:18:01.782Z,53.68
2017-01-19T04:18:42.260Z,53.77
2017-01-19T04:19:22.798Z,53.68
2017-01-19T04:20:03.239Z,53.39
2017-01-19T04:20:43.757Z,53.39
2017-01-19T04:21:24.208Z,53.49
2017-01-19T04:22:04.708Z,53.49
2017-01-19T04:22:45.178Z,53.58
2017-01-19T04:23:25.691Z,53.3
2017-01-19T04:24:06.136Z,53.58
2017-01-19T04:24:46.591Z,53.68
2017-01-19T04:25:27.080Z,53.49
2017-01-19T04:26:07.586Z,54.06
2017-01-19T04:26:48.097Z,53.68
2017-01-19T04:27:28.607Z,54.34
2017-01-19T04:28:09.138Z,54.44
2017-01-19T04:28:49.704Z,54.81
2017-01-19T04:29:30.178Z,54.81
2017-01-19T04:30:10.675Z,54.81
2017-01-19T04:30:51.154Z,54.91
2017-01-19T04:31:31.655Z,54.81
2017-01-19T04:32:12.157Z,54.34
2017-01-19T04:32:52.671Z,54.44
2017-01-19T04:33:33.140Z,54.34
2017-01-19T04:34:13.593Z,54.06
2017-01-19T04:34:54.100Z,53.96
2017-01-19T04:35:34.603Z,54.53
2017-01-19T04:36:15.158Z,54.6
2017-01-19T04:36:55.600Z,54.62
2017-01-19T04:37:36.070Z,54.53
2017-01-19T04:38:16.588Z,54.62
2017-01-19T04:38:57.120Z,54.72
2017-01-19T04:39:37.579Z,54.81
2017-01-19T04:40:18.099Z,54.15
2017-01-19T04:40:58.560Z,54.44
2017-01-19T04:41:39.033Z,54.81
2017-01-19T04:42:19.513Z,54.81
2017-01-19T04:42:59.973Z,54.81
2017-01-19T04:43:40.442Z,54.72
2017-01-19T04:44:20.917Z,54.72
2017-01-19T04:45:01.456Z,54.44
2017-01-19T04:45:41.954Z,54.34
2017-01-19T04:46:22.463Z,54.25
2017-01-19T04:47:03.100Z,54.44
2017-01-19T04:47:43.516Z,54.44
2017-01-19T04:48:24.026Z,54.15
2017-01-19T04:49:04.754Z,54.44
2017-01-19T04:49:45.147Z,54.44
2017-01-19T04:50:25.543Z,54.15
2017-01-19T04:51:06.025Z,54.81
2017-01-19T04:51:46.478Z,54.81
2017-01-19T04:52:26.940Z,54.53
2017-01-19T04:53:07.633Z,54.62
2017-01-19T04:53:48.040Z,55.07
2017-01-19T04:54:28.515Z,54.62
2017-01-19T04:55:09.140Z,54.72
2017-01-19T04:55:49.682Z,54.69
2017-01-19T04:56:30.121Z,54.88
2017-01-19T04:57:10.627Z,54.91
2017-01-19T04:57:51.090Z,54.69
2017-01-19T04:58:31.603Z,54.72
2017-01-19T04:59:12.147Z,54.91
2017-01-19T04:59:52.671Z,54.69
2017-01-19T05:00:33.114Z,54.69
2017-01-19T05:01:13.597Z,54.53
2017-01-19T05:01:54.116Z,54.34
2017-01-19T05:02:34.574Z,54.72
2017-01-19T05:03:15.320Z,54.91
2017-01-19T05:03:55.839Z,54.53
2017-01-19T05:04:36.240Z,54.44
2017-01-19T05:05:16.744Z,54.72
2017-01-19T05:05:57.244Z,54.81
2017-01-19T05:06:37.783Z,54.81
2017-01-19T05:07:18.186Z,54.53
2017-01-19T05:07:58.679Z,54.34
2017-01-19T05:08:39.190Z,54.44
2017-01-19T05:09:19.662Z,54.81
2017-01-19T05:10:00.172Z,54.81
2017-01-19T05:10:40.635Z,54.81
2017-01-19T05:11:21.172Z,54.88
2017-01-19T05:12:01.578Z,54.69
2017-01-19T05:12:42.128Z,54.5
2017-01-19T05:13:22.565Z,54.88
2017-01-19T05:14:03.069Z,54.6
2017-01-19T05:14:43.569Z,54.44
2017-01-19T05:15:24.025Z,54.72
2017-01-19T05:16:04.610Z,54.72
2017-01-19T05:16:45.070Z,54.91
2017-01-19T05:17:25.583Z,54.81
2017-01-19T05:18:06.055Z,54.44
2017-01-19T05:18:46.523Z,54.53
2017-01-19T05:19:27.036Z,54.53
2017-01-19T05:20:07.473Z,54.32
2017-01-19T05:20:47.984Z,54.69
2017-01-19T05:21:28.438Z,54.41
2017-01-19T05:22:08.954Z,54.88
2017-01-19T05:22:49.433Z,54.79
2017-01-19T05:23:29.988Z,54.6
2017-01-19T05:24:10.418Z,55.07
2017-01-19T05:24:50.840Z,55.35
2017-01-19T05:25:31.317Z,54.88
2017-01-19T05:26:11.778Z,54.6
2017-01-19T05:26:52.302Z,54.97
2017-01-19T05:27:32.747Z,54.91
2017-01-19T05:28:13.247Z,54.44
2017-01-19T05:28:53.730Z,54.6
2017-01-19T05:29:34.217Z,54.79
2017-01-19T05:30:14.745Z,54.69
2017-01-19T05:30:55.233Z,54.79
2017-01-19T05:31:35.749Z,54.5
2017-01-19T05:32:16.245Z,55.44
2017-01-19T05:32:56.700Z,55.44
2017-01-19T05:33:37.159Z,54.79
2017-01-19T05:34:17.694Z,54.79
2017-01-19T05:34:58.171Z,54.6
2017-01-19T05:35:38.732Z,54.69
2017-01-19T05:36:19.179Z,54.72
2017-01-19T05:36:59.706Z,54.69
2017-01-19T05:37:40.131Z,54.6
2017-01-19T05:38:20.700Z,54.69
2017-01-19T05:39:01.187Z,54.5
2017-01-19T05:39:41.645Z,54.32
2017-01-19T05:40:22.177Z,54.69
2017-01-19T05:41:02.563Z,54.6
2017-01-19T05:41:43.096Z,54.6
2017-01-19T05:42:23.561Z,54.88
2017-01-19T05:43:04.030Z,54.69
2017-01-19T05:43:44.526Z,54.69
2017-01-19T05:44:24.966Z,54.6
2017-01-19T05:45:05.440Z,54.72
2017-01-19T05:45:45.903Z,54.88
2017-01-19T05:46:26.576Z,54.72
2017-01-19T05:47:06.979Z,54.69
2017-01-19T05:49:08.967Z,54.5
2017-01-19T05:49:49.485Z,54.6
2017-01-19T05:50:29.978Z,54.5
2017-01-19T05:51:10.462Z,54.5
2017-01-19T05:51:50.870Z,54.69
2017-01-19T05:52:31.364Z,54.79
2017-01-19T05:53:11.987Z,54.6
2017-01-19T05:53:52.583Z,55.35
2017-01-19T05:54:33.127Z,54.97
2017-01-19T05:55:13.657Z,54.6
2017-01-19T05:55:54.150Z,54.6
2017-01-19T05:56:34.639Z,54.97
2017-01-19T05:57:15.097Z,54.88
2017-01-19T05:57:55.797Z,54.69
2017-01-19T05:58:36.341Z,54.41
2017-01-19T05:59:16.906Z,54.69
2017-01-19T05:59:57.339Z,54.88
2017-01-19T06:00:37.860Z,55.16
2017-01-19T06:01:18.375Z,55.26
2017-01-19T06:01:59.020Z,55.44
2017-01-19T06:02:39.769Z,55.44
2017-01-19T06:03:20.370Z,55.35
2017-01-19T06:04:01.168Z,55.35
2017-01-19T06:04:41.525Z,55.44
2017-01-19T06:05:22.111Z,55.44
2017-01-19T06:06:03.011Z,55.35
2017-01-19T06:06:43.011Z,55.35
2017-01-19T06:07:23.562Z,55.35
2017-01-19T06:09:11.500Z,54.79
2017-01-19T06:09:52.686Z,54.6
2017-01-19T06:10:33.142Z,54.6
2017-01-19T06:11:13.576Z,54.5
2017-01-19T06:11:54.090Z,54.6
2017-01-19T06:12:34.707Z,54.6
2017-01-19T06:13:15.751Z,54.79
2017-01-19T06:13:56.205Z,54.79
2017-01-19T06:14:36.989Z,55.35
2017-01-19T06:15:17.343Z,55.35
2017-01-19T06:15:57.808Z,55.07
2017-01-19T06:16:38.502Z,54.79
2017-01-19T06:17:19.184Z,54.5
2017-01-19T06:17:59.536Z,54.69
2017-01-19T06:18:40.090Z,54.79
2017-01-19T06:19:21.314Z,54.79
2017-01-19T06:20:03.183Z,54.88
2017-01-19T06:20:46.973Z,54.69
2017-01-19T06:21:27.863Z,54.6
2017-01-19T06:22:08.225Z,54.69
2017-01-19T06:22:48.920Z,54.69
2017-01-19T06:23:29.620Z,54.6
2017-01-19T06:24:09.993Z,55.07
2017-01-19T06:24:50.705Z,54.79
2017-01-19T06:25:31.619Z,54.88
2017-01-19T06:26:12.276Z,54.79
2017-01-19T06:26:53.544Z,54.88
2017-01-19T06:27:34.026Z,54.41
2017-01-19T06:28:14.759Z,55.07
2017-01-19T06:28:55.442Z,54.79
2017-01-19T06:29:36.189Z,54.41
2017-01-19T06:30:16.613Z,54.88
2017-01-19T06:30:57.539Z,54.41
2017-01-19T06:31:38.171Z,54.41
2017-01-19T06:32:19.178Z,54.41
2017-01-19T06:32:59.655Z,54.41
2017-01-19T06:33:41.285Z,54.6
2017-01-19T06:34:21.860Z,54.5
2017-01-19T06:35:02.938Z,54.69
2017-01-19T06:35:43.330Z,54.79
2017-01-19T06:36:27.344Z,54.6
2017-01-19T06:38:48.791Z,54.6
2017-01-19T06:39:30.061Z,54.69
2017-01-19T06:40:11.343Z,54.34
2017-01-19T06:40:52.717Z,54.34
2017-01-19T06:41:37.882Z,54.62
2017-01-19T06:42:23.500Z,54.25
2017-01-19T06:43:03.767Z,54.25
2017-01-19T06:43:44.474Z,53.96
2017-01-19T06:44:24.990Z,53.87
2017-01-19T06:45:05.646Z,53.96
2017-01-19T06:45:46.182Z,53.96
2017-01-19T06:46:27.201Z,54.03
2017-01-19T06:47:08.119Z,54.53
2017-01-19T06:47:49.288Z,54.44
2017-01-19T06:48:29.703Z,54.5
2017-01-19T06:49:10.434Z,54.25
2017-01-19T06:49:50.942Z,53.96
2017-01-19T06:50:31.732Z,53.68
2017-01-19T06:51:12.214Z,53.58
2017-01-19T06:51:52.762Z,53.58
2017-01-19T06:52:33.407Z,53.49
2017-01-19T06:53:14.758Z,53.49
2017-01-19T06:53:55.874Z,53.39
2017-01-19T06:54:36.830Z,53.58
2017-01-19T06:55:17.564Z,53.49
2017-01-19T06:55:58.713Z,53.68
2017-01-19T06:56:40.005Z,53.58
2017-01-19T06:57:20.464Z,53.58
2017-01-19T06:58:01.009Z,53.39
2017-01-19T06:58:41.930Z,53.49
2017-01-19T06:59:22.466Z,53.58
2017-01-19T07:00:02.893Z,53.46
2017-01-19T07:00:44.315Z,53.75
2017-01-19T07:01:25.113Z,53.65
2017-01-19T07:02:06.867Z,54.03
2017-01-19T07:02:47.123Z,54.41
2017-01-19T07:03:40.663Z,54.5
2017-01-19T07:04:30.705Z,54.03
2017-01-19T07:05:21.884Z,53.94
2017-01-19T07:06:03.153Z,53.84
2017-01-19T07:06:44.942Z,53.94
2017-01-19T07:07:24.706Z,53.84
2017-01-19T07:08:05.193Z,53.94
2017-01-19T07:10:20.235Z,54.6
2017-01-19T07:11:01.159Z,54.13
2017-01-19T07:12:49.162Z,54.79
2017-01-19T07:13:29.709Z,54.79
2017-01-19T07:14:10.197Z,54.97
2017-01-19T07:14:50.798Z,54.69
2017-01-19T07:15:31.273Z,54.5
2017-01-19T07:16:11.777Z,54.6
2017-01-19T07:16:52.337Z,53.84
2017-01-19T07:17:32.721Z,53.75
2017-01-19T07:18:13.320Z,53.65
2017-01-19T07:18:53.788Z,53.56
2017-01-19T07:19:34.276Z,53.94
2017-01-19T07:20:14.742Z,53.46
2017-01-19T07:20:55.253Z,53.75
2017-01-19T07:21:35.743Z,53.65
2017-01-19T07:22:23.535Z,54.6
2017-01-19T07:23:02.839Z,54.6
2017-01-19T07:23:43.305Z,54.6
2017-01-19T07:24:23.804Z,54.6
2017-01-19T07:25:04.245Z,54.41
2017-01-19T07:25:44.708Z,54.41
2017-01-19T07:26:25.261Z,54.13
2017-01-19T07:27:05.765Z,54.5
2017-01-19T07:27:46.236Z,53.94
2017-01-19T07:28:26.702Z,53.65
2017-01-19T07:29:07.232Z,53.65
2017-01-19T07:29:47.792Z,53.75
2017-01-19T07:30:28.300Z,54.5
2017-01-19T07:31:08.792Z,54.5
2017-01-19T07:32:29.834Z,53.94
2017-01-19T07:33:10.341Z,53.94
2017-01-19T07:33:50.890Z,54.13
2017-01-19T07:34:31.317Z,54.41
2017-01-19T07:35:11.831Z,54.79
2017-01-19T07:35:52.323Z,54.41
2017-01-19T07:36:32.806Z,54.69
2017-01-19T07:37:13.306Z,54.5
2017-01-19T07:37:53.950Z,54.03
2017-01-19T07:38:34.424Z,54.03
2017-01-19T07:39:14.919Z,53.94
2017-01-19T07:39:55.415Z,53.84
2017-01-19T07:40:35.860Z,53.94
2017-01-19T07:41:16.317Z,54.22
2017-01-19T07:41:56.799Z,54.69
2017-01-19T07:42:37.265Z,54.69
2017-01-19T07:43:17.794Z,54.69
2017-01-19T07:43:58.285Z,54.79
2017-01-19T07:44:38.808Z,54.79
2017-01-19T07:45:19.270Z,54.13
2017-01-19T07:45:59.755Z,54.5
2017-01-19T07:46:40.248Z,54.6
2017-01-19T07:47:20.785Z,54.03
2017-01-19T07:48:01.321Z,54.5
2017-01-19T07:48:41.839Z,54.32
2017-01-19T07:49:22.246Z,54.5
2017-01-19T07:50:02.804Z,53.94
2017-01-19T07:50:43.296Z,54.03
2017-01-19T07:51:23.801Z,53.84
2017-01-19T07:52:04.284Z,53.65
2017-01-19T07:52:44.768Z,53.84
2017-01-19T07:53:25.354Z,53.56
2017-01-19T07:54:05.784Z,54.03
2017-01-19T07:54:46.268Z,54.5
2017-01-19T07:55:26.744Z,54.41
2017-01-19T07:56:07.277Z,54.6
2017-01-19T07:56:47.770Z,54.32
2017-01-19T07:57:28.243Z,54.6
2017-01-19T07:58:08.744Z,54.5
2017-01-19T07:58:49.221Z,53.94
2017-01-19T07:59:29.700Z,53.37
2017-01-19T08:00:10.177Z,53.65
2017-01-19T08:00:50.771Z,53.56
2017-01-19T08:01:31.249Z,53.37
2017-01-19T08:02:11.717Z,53.08
2017-01-19T08:02:52.176Z,53.37
2017-01-19T08:03:32.680Z,53.37
2017-01-19T08:04:13.194Z,53.46
2017-01-19T08:04:53.636Z,53.27
2017-01-19T08:05:35.877Z,53.65
2017-01-19T08:06:15.483Z,53.18
2017-01-19T08:06:55.962Z,53.18
2017-01-19T08:07:36.539Z,53.08
2017-01-19T08:08:16.918Z,53.08
2017-01-19T08:08:57.430Z,53.08
2017-01-19T08:09:37.889Z,53.56
2017-01-19T08:10:18.339Z,53.08
2017-01-19T08:10:58.872Z,53.08
2017-01-19T08:11:39.341Z,52.61
2017-01-19T08:12:19.857Z,52.99
2017-01-19T08:13:00.432Z,52.8
2017-01-19T08:13:40.874Z,52.42
2017-01-19T08:14:21.373Z,52.89
2017-01-19T08:15:01.907Z,52.61
2017-01-19T08:15:42.342Z,52.51
2017-01-19T08:16:22.817Z,52.42
2017-01-19T08:17:03.303Z,52.23
2017-01-19T08:17:43.766Z,52.14
2017-01-19T08:18:24.239Z,52.61
2017-01-19T08:19:04.739Z,52.89
2017-01-19T08:19:45.211Z,53.46
2017-01-19T08:20:25.736Z,52.99
2017-01-19T08:21:06.205Z,52.99
2017-01-19T08:21:46.846Z,52.89
2017-01-19T08:22:27.180Z,52.89
2017-01-19T08:23:07.671Z,52.23
2017-01-19T08:23:48.163Z,52.23
2017-01-19T08:24:28.643Z,52.04
2017-01-19T08:25:09.179Z,51.95
2017-01-19T08:25:49.623Z,52.23
2017-01-19T08:26:30.175Z,52.14
2017-01-19T08:27:10.638Z,52.23
2017-01-19T08:27:51.186Z,52.33
2017-01-19T08:28:31.691Z,52.33
2017-01-19T08:29:12.231Z,52.51
2017-01-19T08:29:52.675Z,52.89
2017-01-19T08:30:33.130Z,52.8
2017-01-19T08:31:13.653Z,52.7
2017-01-19T08:31:54.156Z,52.89
2017-01-19T08:32:34.601Z,52.61
2017-01-19T08:33:15.117Z,52.89
2017-01-19T08:33:55.619Z,52.7
2017-01-19T08:34:36.108Z,52.7
2017-01-19T08:35:16.614Z,52.99
2017-01-19T08:35:57.111Z,52.89
2017-01-19T08:36:37.591Z,52.7
2017-01-19T08:37:18.132Z,52.99
2017-01-19T08:37:58.587Z,52.61
2017-01-19T08:38:39.079Z,52.99
2017-01-19T08:39:19.559Z,52.8
2017-01-19T08:40:00.065Z,52.23
2017-01-19T08:40:40.584Z,52.51
2017-01-19T08:41:21.095Z,52.33
2017-01-19T08:42:01.575Z,52.23
2017-01-19T08:42:42.076Z,52.33
2017-01-19T08:43:22.592Z,52.14
2017-01-19T08:44:03.087Z,52.04
2017-01-19T08:44:43.641Z,51.86
2017-01-19T08:45:24.220Z,52.14
2017-01-19T08:46:04.554Z,51.95
2017-01-19T08:46:45.055Z,52.04
2017-01-19T08:47:25.529Z,51.57
2017-01-19T08:48:06.014Z,52.04
2017-01-19T08:48:46.504Z,52.23
2017-01-19T08:49:26.982Z,52.14
2017-01-19T08:50:07.420Z,52.04
2017-01-19T08:50:47.950Z,52.14
2017-01-19T08:51:28.419Z,52.14
2017-01-19T08:52:08.886Z,51.95
2017-01-19T08:52:49.374Z,52.14
2017-01-19T08:53:29.939Z,51.67
2017-01-19T08:54:10.428Z,52.42
2017-01-19T08:54:50.972Z,52.23